Belmont, Texas
Current Conditions -  °F | °C
As of 2:15 PM on Monday 24 Nov 2014 (Local Time) from KT20 Reporting Station
Clear Clear  
Wind Chill: 66°   Ceiling: Unl
Heat Index: 66°   Visibility: 10mi
Dew Point: 31°   Wind: 9mph
Humidity: 27%   Direction: 330°NNW
Pressure: 30.04"   Gusts: NA
Location:  29.52°N, 97.68°W
Report Text: KT20 242015Z AUTO 33008KT 310V020 10SM CLR 19/M01 A3004 RMK AO2 T01901006
Loading
Personal Weather Stations






























Interactive Weather Map New forecast layout! Learn more

10-Day Weather Forecast

Advertisements
Track Severe Weather on mobile